Time;durP1;ratioP1;P1;durP2;ratioP2;P2;SDS_P1;SDS_P2;PMS_P1;PMS_P2;Temp;Humidity;BMP_temperature;BMP_pressure;BME280_temperature;BME280_humidity;BME280_pressure;Samples;Min_cycle;Max_cycle;Signal;HPM_P1;HPM_P2
2022/12/26 00:02:38;;;;;;;143.43;55.80;;;;;;;;;;6224149;28;20968;-62
2022/12/26 00:05:38;;;;;;;143.43;56.75;;;;;;;;;;6249230;28;20063;-68
2022/12/26 00:08:39;;;;;;;141.57;57.90;;;;;;;;;;6238532;28;20155;-63
2022/12/26 00:11:39;;;;;;;132.38;52.33;;;;;;;;;;6246054;28;20104;-63
2022/12/26 00:14:40;;;;;;;126.40;48.22;;;;;;;;;;6251246;28;20136;-67
2022/12/26 00:17:40;;;;;;;108.10;46.38;;;;;;;;;;6250876;28;20053;-62
2022/12/26 00:20:41;;;;;;;115.18;46.53;;;;;;;;;;6241544;28;20050;-68
2022/12/26 00:23:42;;;;;;;107.18;45.35;;;;;;;;;;6240457;28;20049;-63
2022/12/26 00:26:43;;;;;;;112.18;47.08;;;;;;;;;;6253552;28;20067;-63
2022/12/26 00:29:43;;;;;;;113.65;48.03;;;;;;;;;;6242824;28;20053;-63
2022/12/26 00:32:44;;;;;;;136.77;53.47;;;;;;;;;;6240783;28;20085;-63
2022/12/26 00:35:44;;;;;;;124.72;51.05;;;;;;;;;;6243043;28;20064;-63
2022/12/26 00:38:46;;;;;;;127.70;53.22;;;;;;;;;;6255307;28;20507;-63
2022/12/26 00:41:46;;;;;;;133.57;54.40;;;;;;;;;;6251079;28;20388;-62
2022/12/26 00:44:48;;;;;;;125.85;52.55;;;;;;;;;;6257411;28;20056;-64
2022/12/26 00:47:48;;;;;;;130.70;50.85;;;;;;;;;;6266943;28;20048;-66
2022/12/26 00:50:49;;;;;;;127.95;50.40;;;;;;;;;;6248412;28;20049;-63
2022/12/26 00:53:49;;;;;;;121.40;46.55;;;;;;;;;;6249957;28;20048;-63
2022/12/26 00:56:50;;;;;;;106.72;45.47;;;;;;;;;;6243995;28;20128;-62
2022/12/26 00:59:50;;;;;;;101.82;43.45;;;;;;;;;;6248354;28;20053;-63
2022/12/26 01:02:51;;;;;;;107.93;45.13;;;;;;;;;;6248835;28;20076;-69
2022/12/26 01:05:52;;;;;;;115.22;47.47;;;;;;;;;;6253973;28;20049;-64
2022/12/26 01:08:53;;;;;;;102.30;45.47;;;;;;;;;;6265221;28;20045;-63
2022/12/26 01:11:53;;;;;;;101.43;43.83;;;;;;;;;;6262705;28;20406;-68
2022/12/26 01:14:55;;;;;;;104.05;44.30;;;;;;;;;;6260259;28;20053;-62
2022/12/26 01:17:57;;;;;;;113.43;46.87;;;;;;;;;;6268744;28;20092;-67
2022/12/26 01:21:01;;;;;;;105.57;44.75;;;;;;;;;;6268470;28;20567;-63
2022/12/26 01:24:01;;;;;;;112.30;47.05;;;;;;;;;;6258726;28;20045;-62
2022/12/26 01:27:02;;;;;;;108.15;47.90;;;;;;;;;;6260751;28;20146;-65
2022/12/26 01:30:03;;;;;;;111.93;47.40;;;;;;;;;;6270101;28;20084;-68
2022/12/26 01:33:05;;;;;;;106.25;49.35;;;;;;;;;;6270275;28;20076;-61
2022/12/26 01:36:05;;;;;;;108.97;49.10;;;;;;;;;;6270195;28;20131;-67
2022/12/26 01:39:06;;;;;;;113.25;53.03;;;;;;;;;;6259154;28;20057;-66
2022/12/26 01:42:15;;;;;;;105.88;46.67;;;;;;;;;;6262836;28;20033;-62
2022/12/26 01:45:30;;;;;;;103.57;45.80;;;;;;;;;;6254359;28;20053;-63
2022/12/26 01:48:33;;;;;;;102.82;44.17;;;;;;;;;;6248472;28;20098;-64
2022/12/26 01:51:38;;;;;;;96.50;42.10;;;;;;;;;;6249047;28;20045;-66
2022/12/26 01:54:41;;;;;;;94.25;42.42;;;;;;;;;;6244721;28;20084;-63
2022/12/26 01:57:46;;;;;;;91.10;43.13;;;;;;;;;;6267264;28;20135;-66
2022/12/26 02:00:47;;;;;;;96.03;44.03;;;;;;;;;;6252508;28;20423;-62
2022/12/26 02:07:07;;;;;;;101.30;47.15;;;;;;;;;;6252306;28;20132;-62
2022/12/26 02:10:16;;;;;;;110.30;45.03;;;;;;;;;;6262117;28;20060;-63
2022/12/26 02:13:18;;;;;;;101.57;46.10;;;;;;;;;;6249234;28;20064;-62
2022/12/26 02:16:19;;;;;;;;;;;;;;;;;;6246961;28;20128;-63
2022/12/26 02:19:33;;;;;;;107.03;48.97;;;;;;;;;;6240739;28;19933;-62
2022/12/26 02:23:06;;;;;;;120.20;56.47;;;;;;;;;;6245576;28;20828;-63
2022/12/26 02:26:44;;;;;;;117.72;52.13;;;;;;;;;;6243244;28;20050;-65
2022/12/26 02:30:06;;;;;;;130.48;57.22;;;;;;;;;;6243190;28;20060;-67
2022/12/26 02:33:30;;;;;;;120.22;52.75;;;;;;;;;;6246915;28;20462;-62
2022/12/26 02:36:59;;;;;;;94.55;40.22;;;;;;;;;;6246984;28;20050;-66
2022/12/26 02:40:18;;;;;;;105.88;43.22;;;;;;;;;;6242090;28;20053;-62
2022/12/26 02:43:43;;;;;;;123.25;54.60;;;;;;;;;;6250852;28;20094;-67
2022/12/26 02:47:02;;;;;;;128.23;55.17;;;;;;;;;;6265123;28;20049;-66
2022/12/26 03:14:58;;;;;;;108.60;48.63;;;;;;;;;;6258108;28;20041;-63
2022/12/26 03:18:04;;;;;;;111.32;51.05;;;;;;;;;;6248154;28;20816;-63
2022/12/26 03:21:07;;;;;;;113.25;51.20;;;;;;;;;;6244593;28;20460;-63
2022/12/26 03:24:11;;;;;;;128.95;59.78;;;;;;;;;;6259336;28;20709;-65
2022/12/26 03:27:11;;;;;;;119.47;57.15;;;;;;;;;;6249334;28;20510;-62
2022/12/26 03:37:08;;;;;;;99.00;44.00;;;;;;;;;;6239517;28;20049;-63
2022/12/26 04:19:22;;;;;;;100.50;44.17;;;;;;;;;;6240082;28;20053;-63
2022/12/26 04:19:24;;;;;;;109.22;48.05;;;;;;;;;;6262161;28;20053;-62
2022/12/26 04:46:10;;;;;;;118.55;51.25;;;;;;;;;;6254361;28;20056;-62
2022/12/26 04:55:51;;;;;;;94.18;40.10;;;;;;;;;;6240444;28;20496;-62
2022/12/26 04:58:51;;;;;;;83.55;35.50;;;;;;;;;;6240984;28;20119;-63
2022/12/26 05:12:05;;;;;;;49.78;21.73;;;;;;;;;;6258064;28;20118;-62
2022/12/26 05:15:06;;;;;;;48.03;20.13;;;;;;;;;;6243210;28;20056;-62
2022/12/26 05:31:29;;;;;;;44.00;18.92;;;;;;;;;;6242223;28;20045;-62
2022/12/26 05:34:29;;;;;;;40.10;17.55;;;;;;;;;;6239332;28;20103;-62
2022/12/26 05:37:30;;;;;;;44.92;18.58;;;;;;;;;;6238091;28;20540;-62
2022/12/26 05:40:30;;;;;;;41.03;17.55;;;;;;;;;;6252159;28;20051;-62
2022/12/26 05:43:31;;;;;;;33.63;15.50;;;;;;;;;;6266897;28;20057;-62
2022/12/26 05:46:33;;;;;;;41.45;17.02;;;;;;;;;;6250132;28;20045;-63
2022/12/26 05:49:33;;;;;;;42.30;15.27;;;;;;;;;;6271303;28;20045;-62
2022/12/26 05:52:34;;;;;;;34.35;15.60;;;;;;;;;;6249113;28;20048;-62
2022/12/26 05:55:34;;;;;;;30.02;15.43;;;;;;;;;;6245632;28;20057;-62
2022/12/26 05:58:35;;;;;;;34.45;14.65;;;;;;;;;;6249241;28;20404;-66
2022/12/26 06:01:36;;;;;;;34.80;16.35;;;;;;;;;;6245228;28;20045;-62
2022/12/26 06:04:36;;;;;;;36.90;15.32;;;;;;;;;;6265577;28;20044;-62
2022/12/26 06:07:39;;;;;;;33.55;15.80;;;;;;;;;;6249781;28;20502;-62
2022/12/26 06:10:39;;;;;;;35.72;18.10;;;;;;;;;;6250215;28;20041;-62
2022/12/26 06:13:41;;;;;;;36.65;16.08;;;;;;;;;;6249434;28;20425;-62
2022/12/26 06:16:41;;;;;;;39.47;17.38;;;;;;;;;;6268987;28;20056;-63
2022/12/26 06:19:42;;;;;;;41.80;18.45;;;;;;;;;;6255584;28;20060;-62
2022/12/26 06:22:42;;;;;;;40.20;18.35;;;;;;;;;;6244769;28;20057;-62
2022/12/26 06:25:43;;;;;;;43.10;18.80;;;;;;;;;;6242270;28;20045;-65
2022/12/26 06:28:44;;;;;;;50.85;22.73;;;;;;;;;;6245556;28;20050;-62
2022/12/26 06:31:44;;;;;;;45.53;19.60;;;;;;;;;;6243275;28;20051;-62
2022/12/26 06:34:46;;;;;;;49.55;19.40;;;;;;;;;;6247063;28;20049;-62
2022/12/26 06:37:47;;;;;;;46.63;19.98;;;;;;;;;;6247445;28;20041;-62
2022/12/26 06:40:47;;;;;;;56.92;25.10;;;;;;;;;;6269876;28;20500;-62
2022/12/26 06:43:48;;;;;;;45.60;20.33;;;;;;;;;;6246471;28;20614;-61
2022/12/26 06:46:49;;;;;;;48.28;21.67;;;;;;;;;;6247014;28;20052;-62
2022/12/26 06:49:49;;;;;;;49.95;21.60;;;;;;;;;;6263112;28;20118;-62
2022/12/26 06:52:50;;;;;;;48.00;21.92;;;;;;;;;;6258804;28;20088;-61
2022/12/26 06:55:51;;;;;;;53.10;20.80;;;;;;;;;;6245228;28;20054;-62
2022/12/26 06:58:56;;;;;;;52.00;20.80;;;;;;;;;;6226719;28;20045;-62
2022/12/26 07:01:57;;;;;;;46.58;20.40;;;;;;;;;;6245579;28;20106;-61
2022/12/26 07:04:57;;;;;;;49.33;20.10;;;;;;;;;;6242900;28;20045;-62
2022/12/26 07:07:58;;;;;;;47.67;19.77;;;;;;;;;;6245469;28;20037;-66
2022/12/26 07:10:59;;;;;;;44.17;20.50;;;;;;;;;;6242516;28;20520;-62
2022/12/26 07:14:00;;;;;;;48.78;18.85;;;;;;;;;;6244782;28;20140;-61
2022/12/26 07:17:00;;;;;;;43.25;18.42;;;;;;;;;;6242484;28;20061;-66
2022/12/26 07:20:03;;;;;;;39.50;17.13;;;;;;;;;;6242705;28;20049;-62
2022/12/26 07:23:03;;;;;;;41.88;17.75;;;;;;;;;;6240601;28;20046;-63
2022/12/26 07:26:06;;;;;;;35.05;16.70;;;;;;;;;;6241277;28;20129;-62
2022/12/26 07:29:09;;;;;;;36.15;16.58;;;;;;;;;;6243540;28;20042;-65
2022/12/26 07:32:10;;;;;;;35.42;15.70;;;;;;;;;;6265858;28;20435;-62
2022/12/26 07:35:10;;;;;;;40.28;16.58;;;;;;;;;;6246137;28;20053;-62
2022/12/26 07:38:12;;;;;;;34.22;15.77;;;;;;;;;;6252579;28;20092;-62
2022/12/26 07:44:32;;;;;;;34.80;15.77;;;;;;;;;;6242778;28;20053;-62
2022/12/26 07:47:33;;;;;;;37.67;16.15;;;;;;;;;;6242849;28;20111;-66
2022/12/26 07:50:33;;;;;;;33.90;15.38;;;;;;;;;;6246906;28;20057;-62
2022/12/26 07:53:34;;;;;;;30.90;15.52;;;;;;;;;;6248126;28;20088;-62
2022/12/26 07:56:35;;;;;;;40.75;15.60;;;;;;;;;;6242358;28;20072;-62
2022/12/26 07:59:35;;;;;;;32.90;14.98;;;;;;;;;;6244595;28;20041;-62
2022/12/26 08:02:36;;;;;;;34.53;15.30;;;;;;;;;;6244266;28;20087;-66
2022/12/26 08:05:36;;;;;;;35.03;15.27;;;;;;;;;;6247832;28;20052;-63
2022/12/26 08:08:37;;;;;;;33.10;15.63;;;;;;;;;;6241632;28;20187;-64
2022/12/26 08:11:37;;;;;;;28.80;14.45;;;;;;;;;;6244749;28;20057;-63
2022/12/26 08:14:39;;;;;;;32.05;14.77;;;;;;;;;;6243390;28;20055;-65
2022/12/26 08:17:39;;;;;;;31.25;16.00;;;;;;;;;;6246767;28;20053;-64
2022/12/26 08:20:40;;;;;;;30.60;14.27;;;;;;;;;;6266514;28;20077;-62
2022/12/26 08:23:41;;;;;;;28.83;14.25;;;;;;;;;;6264921;28;20107;-62
2022/12/26 08:26:42;;;;;;;28.65;13.68;;;;;;;;;;6257377;28;20384;-63
2022/12/26 08:29:42;;;;;;;29.90;14.90;;;;;;;;;;6264029;28;20053;-62
2022/12/26 08:32:43;;;;;;;28.48;14.15;;;;;;;;;;6266802;28;20065;-63
2022/12/26 08:35:43;;;;;;;30.05;14.82;;;;;;;;;;6266665;28;20080;-67
2022/12/26 08:38:44;;;;;;;31.70;14.77;;;;;;;;;;6266907;28;20476;-62
2022/12/26 08:41:45;;;;;;;34.88;14.45;;;;;;;;;;6266413;28;20048;-63
2022/12/26 08:44:46;;;;;;;26.85;13.55;;;;;;;;;;6265753;28;20053;-63
2022/12/26 08:47:46;;;;;;;30.67;14.25;;;;;;;;;;6264673;28;20051;-64
2022/12/26 08:50:47;;;;;;;29.02;13.13;;;;;;;;;;6267059;28;20063;-67
2022/12/26 08:53:49;;;;;;;27.60;13.82;;;;;;;;;;6252637;28;20049;-65
2022/12/26 08:56:50;;;;;;;25.42;12.57;;;;;;;;;;6266119;28;20407;-71
2022/12/26 08:59:51;;;;;;;28.10;13.40;;;;;;;;;;6266164;28;20053;-67
2022/12/26 09:02:51;;;;;;;29.42;12.40;;;;;;;;;;6258828;28;20091;-64
2022/12/26 09:05:52;;;;;;;28.70;13.73;;;;;;;;;;6254529;28;20049;-64
2022/12/26 09:08:53;;;;;;;26.88;12.48;;;;;;;;;;6265041;28;20076;-65
2022/12/26 09:11:53;;;;;;;31.10;14.10;;;;;;;;;;6266273;28;20049;-64
2022/12/26 09:14:54;;;;;;;28.38;13.15;;;;;;;;;;6266862;28;20041;-66
2022/12/26 09:17:55;;;;;;;29.83;13.80;;;;;;;;;;6271442;28;20384;-63
2022/12/26 09:20:58;;;;;;;31.23;14.27;;;;;;;;;;6271545;28;20555;-66
2022/12/26 09:24:02;;;;;;;30.90;14.10;;;;;;;;;;6270110;28;20128;-66
2022/12/26 09:27:02;;;;;;;30.38;14.05;;;;;;;;;;6262267;28;20068;-62
2022/12/26 09:30:03;;;;;;;30.75;14.35;;;;;;;;;;6270529;28;20059;-67
2022/12/26 09:33:06;;;;;;;31.13;13.85;;;;;;;;;;6270114;28;20140;-67
2022/12/26 09:36:10;;;;;;;30.80;13.57;;;;;;;;;;6269893;28;20049;-63
2022/12/26 09:39:10;;;;;;;32.75;14.98;;;;;;;;;;6269163;28;20395;-63
2022/12/26 09:42:20;;;;;;;30.55;13.52;;;;;;;;;;6269982;28;20392;-66
2022/12/26 09:45:47;;;;;;;35.17;17.08;;;;;;;;;;6267156;28;20509;-67
2022/12/26 09:48:58;;;;;;;30.85;13.30;;;;;;;;;;6264769;28;20098;-67
2022/12/26 09:52:03;;;;;;;34.50;14.70;;;;;;;;;;6269802;28;20128;-65
2022/12/26 09:55:14;;;;;;;32.30;13.95;;;;;;;;;;6269180;28;20127;-68
2022/12/26 09:58:28;;;;;;;36.13;14.40;;;;;;;;;;6269665;28;20051;-64
2022/12/26 10:01:33;;;;;;;34.33;15.10;;;;;;;;;;6256120;28;20504;-65
2022/12/26 10:04:34;;;;;;;35.42;15.60;;;;;;;;;;6269379;28;20049;-64
2022/12/26 10:07:58;;;;;;;30.63;15.05;;;;;;;;;;6269366;28;20071;-64
2022/12/26 10:11:06;;;;;;;34.60;14.88;;;;;;;;;;6269506;28;20047;-70
2022/12/26 10:14:14;;;;;;;32.13;14.55;;;;;;;;;;6259666;28;20404;-72
2022/12/26 10:17:34;;;;;;;35.08;15.20;;;;;;;;;;6269432;28;20163;-65
2022/12/26 10:20:53;;;;;;;33.38;14.13;;;;;;;;;;6259784;28;20041;-67
2022/12/26 10:24:04;;;;;;;30.10;14.35;;;;;;;;;;6263581;28;20048;-68
2022/12/26 10:27:12;;;;;;;35.20;15.30;;;;;;;;;;6266990;28;20487;-70
2022/12/26 10:30:20;;;;;;;33.78;14.82;;;;;;;;;;6258689;28;20116;-67
2022/12/26 10:33:51;;;;;;;34.20;14.55;;;;;;;;;;6263683;28;20056;-66
2022/12/26 10:37:04;;;;;;;38.13;16.97;;;;;;;;;;6259099;28;20737;-65
2022/12/26 10:40:36;;;;;;;36.92;16.05;;;;;;;;;;6264820;28;20099;-67
2022/12/26 10:43:43;;;;;;;34.45;16.08;;;;;;;;;;6265330;28;20049;-68
2022/12/26 10:47:16;;;;;;;38.63;15.63;;;;;;;;;;6267278;28;20041;-67
2022/12/26 10:50:21;;;;;;;42.03;17.15;;;;;;;;;;6265545;28;20091;-66
2022/12/26 10:53:22;;;;;;;34.08;14.20;;;;;;;;;;6265984;28;20045;-66
2022/12/26 10:56:24;;;;;;;42.05;18.65;;;;;;;;;;6266160;28;20045;-67
2022/12/26 10:59:54;;;;;;;44.47;17.25;;;;;;;;;;6267582;28;20045;-67
2022/12/26 11:03:00;;;;;;;37.10;16.20;;;;;;;;;;6246835;28;20098;-69
2022/12/26 11:06:05;;;;;;;38.08;15.38;;;;;;;;;;6268391;28;20059;-68
2022/12/26 11:09:06;;;;;;;36.20;15.65;;;;;;;;;;6265304;28;20040;-65
2022/12/26 11:12:37;;;;;;;34.72;15.05;;;;;;;;;;6265602;28;20538;-72
2022/12/26 11:15:45;;;;;;;32.38;14.50;;;;;;;;;;6262345;28;20060;-65
2022/12/26 11:18:49;;;;;;;38.17;17.20;;;;;;;;;;6267798;28;20060;-69
2022/12/26 11:21:50;;;;;;;45.13;22.40;;;;;;;;;;6267888;28;20136;-68
2022/12/26 11:25:06;;;;;;;34.80;16.08;;;;;;;;;;6265140;28;20764;-69
2022/12/26 11:28:22;;;;;;;35.40;16.45;;;;;;;;;;6262354;28;20533;-66
2022/12/26 11:31:26;;;;;;;35.67;17.00;;;;;;;;;;6259109;28;20083;-65
2022/12/26 11:34:44;;;;;;;26.23;13.05;;;;;;;;;;6259122;28;20056;-68
2022/12/26 11:37:49;;;;;;;29.73;12.68;;;;;;;;;;6264289;28;20079;-66
2022/12/26 11:41:30;;;;;;;26.30;12.50;;;;;;;;;;6265819;28;20131;-66
2022/12/26 11:44:27;;;;;;;26.48;11.82;;;;;;;;;;6263609;28;20076;-66
2022/12/26 11:47:30;;;;;;;44.30;17.92;;;;;;;;;;6264888;28;20094;-65
2022/12/26 11:50:30;;;;;;;40.28;22.52;;;;;;;;;;6264667;28;20048;-65
2022/12/26 11:53:33;;;;;;;36.03;18.27;;;;;;;;;;6264687;28;20107;-65
2022/12/26 11:56:34;;;;;;;27.30;13.65;;;;;;;;;;6265316;28;20044;-65
2022/12/26 11:59:34;;;;;;;31.00;13.70;;;;;;;;;;6266585;28;20071;-65
2022/12/26 12:02:37;;;;;;;24.08;11.18;;;;;;;;;;6267069;28;20072;-70
2022/12/26 12:06:25;;;;;;;21.33;11.02;;;;;;;;;;6267998;28;20060;-68
2022/12/26 12:09:40;;;;;;;21.08;10.73;;;;;;;;;;6267409;28;20514;-64
2022/12/26 12:12:52;;;;;;;20.05;10.27;;;;;;;;;;6266615;28;20049;-69
2022/12/26 12:16:14;;;;;;;20.97;9.23;;;;;;;;;;6266638;28;20052;-68
2022/12/26 12:19:22;;;;;;;;;;;;;;;;;;6268076;28;20475;-69
2022/12/26 12:22:55;;;;;;;23.73;10.73;;;;;;;;;;6266994;28;19928;-69
2022/12/26 12:26:20;;;;;;;21.85;10.02;;;;;;;;;;6266508;28;20049;-67
2022/12/26 12:29:26;;;;;;;20.30;9.70;;;;;;;;;;6265857;28;20051;-68
2022/12/26 12:32:51;;;;;;;22.40;10.02;;;;;;;;;;6252691;28;20754;-68
2022/12/26 12:36:00;;;;;;;17.38;8.70;;;;;;;;;;6266665;28;20055;-68
2022/12/26 12:39:13;;;;;;;19.60;8.77;;;;;;;;;;6219528;28;20049;-65
2022/12/26 12:42:29;;;;;;;20.75;8.95;;;;;;;;;;6241334;28;20050;-66
2022/12/26 12:45:57;;;;;;;21.75;9.23;;;;;;;;;;6251808;28;20120;-67
2022/12/26 12:49:33;;;;;;;19.98;9.48;;;;;;;;;;6257419;28;20056;-68
2022/12/26 12:52:34;;;;;;;22.05;10.13;;;;;;;;;;6242546;28;20411;-68
2022/12/26 12:55:34;;;;;;;21.73;9.93;;;;;;;;;;6241876;28;20049;-67
2022/12/26 12:58:45;;;;;;;23.45;10.10;;;;;;;;;;6258877;28;20124;-67
2022/12/26 13:01:50;;;;;;;22.95;10.20;;;;;;;;;;6258092;28;20068;-67
2022/12/26 13:05:03;;;;;;;22.75;10.57;;;;;;;;;;6242569;28;20041;-67
2022/12/26 13:08:09;;;;;;;22.98;10.55;;;;;;;;;;6242003;28;20029;-67
2022/12/26 13:11:24;;;;;;;23.83;12.20;;;;;;;;;;6245956;28;20049;-67
2022/12/26 13:14:30;;;;;;;27.75;13.55;;;;;;;;;;6243284;28;20111;-67
2022/12/26 13:17:36;;;;;;;25.45;11.80;;;;;;;;;;6244412;28;20088;-67
2022/12/26 13:20:42;;;;;;;26.70;12.52;;;;;;;;;;6246480;28;20072;-67
2022/12/26 13:27:20;;;;;;;23.88;11.75;;;;;;;;;;6241964;28;20041;-67
2022/12/26 13:30:28;;;;;;;22.10;10.30;;;;;;;;;;6244747;28;20447;-68
2022/12/26 13:33:29;;;;;;;23.25;10.88;;;;;;;;;;6246044;28;20058;-68
2022/12/26 13:36:51;;;;;;;20.47;11.10;;;;;;;;;;6245662;28;20045;-67
2022/12/26 13:39:51;;;;;;;24.00;11.53;;;;;;;;;;6236378;28;20530;-68
2022/12/26 13:46:36;;;;;;;25.10;11.13;;;;;;;;;;6244635;28;20037;-68
2022/12/26 13:49:39;;;;;;;21.83;11.00;;;;;;;;;;6244243;28;20057;-68
2022/12/26 13:52:40;;;;;;;24.02;11.05;;;;;;;;;;6243797;28;20511;-68
2022/12/26 13:55:43;;;;;;;24.02;10.88;;;;;;;;;;6244646;28;20055;-68
2022/12/26 13:59:23;;;;;;;24.85;11.00;;;;;;;;;;6244472;28;20494;-68
2022/12/26 14:02:57;;;;;;;24.58;11.27;;;;;;;;;;6250866;28;20040;-68
2022/12/26 14:06:15;;;;;;;22.65;10.80;;;;;;;;;;6266439;28;20135;-68
2022/12/26 14:09:20;;;;;;;24.95;12.23;;;;;;;;;;6245889;28;20063;-68
2022/12/26 14:12:35;;;;;;;32.13;14.63;;;;;;;;;;6243865;28;20045;-67
2022/12/26 14:15:58;;;;;;;24.30;13.02;;;;;;;;;;6250428;28;20632;-67
2022/12/26 14:19:05;;;;;;;;;;;;;;;;;;6262385;28;20456;-68
2022/12/26 14:22:10;;;;;;;29.38;15.15;;;;;;;;;;6244952;28;19925;-67
2022/12/26 14:25:26;;;;;;;28.25;15.98;;;;;;;;;;6245981;28;20538;-67
2022/12/26 14:28:46;;;;;;;22.67;10.88;;;;;;;;;;6247597;28;20037;-67
2022/12/26 14:32:05;;;;;;;21.13;10.32;;;;;;;;;;6248326;28;20077;-68
2022/12/26 14:35:12;;;;;;;21.67;10.05;;;;;;;;;;6241634;28;20056;-67
2022/12/26 14:38:47;;;;;;;19.75;9.88;;;;;;;;;;6244594;28;20057;-67
2022/12/26 14:45:33;;;;;;;22.77;11.18;;;;;;;;;;6255895;28;20041;-67
2022/12/26 14:48:41;;;;;;;28.75;15.10;;;;;;;;;;6244465;28;20071;-67
2022/12/26 14:51:42;;;;;;;28.52;15.38;;;;;;;;;;6229709;28;20566;-68
2022/12/26 14:54:45;;;;;;;31.42;17.98;;;;;;;;;;6243131;28;20037;-67
2022/12/26 14:57:47;;;;;;;20.25;11.30;;;;;;;;;;6243183;28;20136;-68
2022/12/26 15:00:48;;;;;;;21.60;9.65;;;;;;;;;;6243398;28;20815;-66
2022/12/26 15:04:07;;;;;;;31.00;13.82;;;;;;;;;;6245118;28;20041;-68
2022/12/26 15:07:37;;;;;;;24.27;10.82;;;;;;;;;;6268211;28;20411;-68
2022/12/26 15:11:02;;;;;;;23.55;11.40;;;;;;;;;;6239547;28;20692;-68
2022/12/26 15:14:06;;;;;;;28.02;12.30;;;;;;;;;;6228430;28;20077;-67
2022/12/26 15:17:38;;;;;;;24.38;12.27;;;;;;;;;;6236235;28;20053;-68
2022/12/26 15:20:39;;;;;;;22.97;11.50;;;;;;;;;;6235892;28;20057;-67
2022/12/26 15:24:05;;;;;;;27.77;13.00;;;;;;;;;;6233583;28;20440;-66
2022/12/26 15:27:22;;;;;;;22.77;11.70;;;;;;;;;;6242206;28;20127;-66
2022/12/26 15:30:51;;;;;;;29.10;14.00;;;;;;;;;;6234243;28;20072;-66
2022/12/26 15:34:06;;;;;;;37.63;18.27;;;;;;;;;;6238559;28;20057;-67
2022/12/26 15:37:21;;;;;;;36.88;20.27;;;;;;;;;;6224393;28;20127;-67
2022/12/26 15:40:27;;;;;;;29.85;13.50;;;;;;;;;;6236545;28;20099;-67
2022/12/26 15:43:39;;;;;;;30.23;13.90;;;;;;;;;;6234851;28;20469;-68
2022/12/26 15:47:07;;;;;;;28.30;13.37;;;;;;;;;;6252929;28;20461;-67
2022/12/26 15:50:19;;;;;;;24.92;13.02;;;;;;;;;;6238360;28;20052;-68
2022/12/26 15:53:30;;;;;;;26.38;12.45;;;;;;;;;;6236503;28;20042;-67
2022/12/26 15:56:40;;;;;;;26.75;12.57;;;;;;;;;;6236804;28;20064;-68
2022/12/26 16:00:02;;;;;;;26.92;12.35;;;;;;;;;;6237033;28;20050;-66
2022/12/26 16:03:21;;;;;;;25.40;12.07;;;;;;;;;;6238143;28;20088;-69
2022/12/26 16:06:47;;;;;;;31.75;13.23;;;;;;;;;;6235621;28;20049;-67
2022/12/26 16:09:54;;;;;;;37.17;17.38;;;;;;;;;;6235436;28;20045;-69
2022/12/26 16:13:03;;;;;;;44.70;22.23;;;;;;;;;;6236841;28;20045;-66
2022/12/26 16:16:04;;;;;;;44.97;25.48;;;;;;;;;;6234456;28;20503;-67
2022/12/26 16:19:25;;;;;;;30.90;13.80;;;;;;;;;;6238810;28;20060;-67
2022/12/26 16:22:48;;;;;;;28.45;13.60;;;;;;;;;;6235227;28;20103;-69
2022/12/26 16:25:52;;;;;;;27.70;12.15;;;;;;;;;;6236753;28;20053;-67
2022/12/26 16:28:53;;;;;;;26.05;11.90;;;;;;;;;;6236926;28;20086;-67
2022/12/26 16:32:02;;;;;;;27.67;12.32;;;;;;;;;;6236212;28;20037;-67
2022/12/26 16:35:31;;;;;;;29.35;12.38;;;;;;;;;;6237839;28;20041;-70
2022/12/26 16:38:32;;;;;;;28.92;14.38;;;;;;;;;;6239905;28;20506;-67
2022/12/26 16:41:35;;;;;;;37.35;15.38;;;;;;;;;;6232565;28;20041;-67
2022/12/26 16:44:38;;;;;;;32.63;15.27;;;;;;;;;;6233191;28;20049;-69
2022/12/26 16:47:39;;;;;;;34.92;15.00;;;;;;;;;;6236479;28;20053;-68
2022/12/26 16:50:45;;;;;;;41.03;18.88;;;;;;;;;;6239183;28;20076;-67
2022/12/26 16:53:46;;;;;;;39.47;16.00;;;;;;;;;;6236149;28;20494;-69
2022/12/26 16:56:49;;;;;;;41.60;23.73;;;;;;;;;;6237617;28;20157;-68
2022/12/26 16:59:56;;;;;;;33.33;17.38;;;;;;;;;;6227570;28;20053;-68
2022/12/26 17:02:59;;;;;;;31.58;15.75;;;;;;;;;;6235768;28;20443;-64
2022/12/26 17:06:05;;;;;;;36.15;16.00;;;;;;;;;;6238902;28;20127;-68
2022/12/26 17:09:10;;;;;;;34.67;16.08;;;;;;;;;;6235166;28;20084;-66
2022/12/26 17:12:25;;;;;;;31.70;14.20;;;;;;;;;;6236771;28;20045;-64
2022/12/26 17:15:35;;;;;;;26.05;13.43;;;;;;;;;;6236700;28;20045;-66
2022/12/26 17:18:48;;;;;;;29.08;13.05;;;;;;;;;;6236240;28;20049;-67
2022/12/26 17:22:29;;;;;;;26.35;12.93;;;;;;;;;;6230602;28;20403;-64
2022/12/26 17:25:32;;;;;;;27.52;11.70;;;;;;;;;;6232112;28;20127;-67
2022/12/26 17:28:36;;;;;;;26.27;12.77;;;;;;;;;;6237133;28;20095;-67
2022/12/26 17:31:38;;;;;;;28.13;13.07;;;;;;;;;;6233937;28;20049;-66
2022/12/26 17:34:39;;;;;;;50.78;30.13;;;;;;;;;;6236584;28;20054;-71
2022/12/26 17:37:41;;;;;;;53.97;28.17;;;;;;;;;;6244740;28;20099;-65
2022/12/26 17:40:46;;;;;;;42.13;22.75;;;;;;;;;;6235070;28;20419;-66
2022/12/26 17:43:46;;;;;;;40.10;21.73;;;;;;;;;;6238991;28;20420;-66
2022/12/26 17:46:47;;;;;;;29.25;14.80;;;;;;;;;;6242929;28;20045;-66
2022/12/26 17:49:49;;;;;;;29.20;14.45;;;;;;;;;;6240243;28;20046;-67
2022/12/26 17:52:50;;;;;;;27.33;13.25;;;;;;;;;;6240838;28;20121;-67
2022/12/26 17:55:52;;;;;;;28.08;14.23;;;;;;;;;;6243106;28;20052;-66
2022/12/26 17:58:54;;;;;;;27.30;12.80;;;;;;;;;;6238953;28;20432;-67
2022/12/26 18:01:55;;;;;;;26.23;11.93;;;;;;;;;;6239568;28;20045;-67
2022/12/26 18:04:55;;;;;;;31.63;13.30;;;;;;;;;;6242275;28;20148;-66
2022/12/26 18:07:57;;;;;;;40.10;17.67;;;;;;;;;;6238185;28;20522;-67
2022/12/26 18:10:59;;;;;;;34.38;16.02;;;;;;;;;;6238347;28;20045;-66
2022/12/26 18:14:00;;;;;;;82.88;46.78;;;;;;;;;;6240185;28;20048;-67
2022/12/26 18:17:01;;;;;;;39.92;21.30;;;;;;;;;;6236174;28;20826;-70
2022/12/26 18:20:03;;;;;;;34.10;17.15;;;;;;;;;;6239247;28;20057;-67
2022/12/26 18:23:04;;;;;;;;;;;;;;;;;;6239795;28;20140;-66
2022/12/26 18:26:11;;;;;;;34.38;14.50;;;;;;;;;;6239388;28;19925;-66
2022/12/26 18:29:14;;;;;;;32.75;14.82;;;;;;;;;;6241543;28;20098;-65
2022/12/26 18:32:26;;;;;;;33.90;15.15;;;;;;;;;;6234633;28;20046;-67
2022/12/26 18:35:27;;;;;;;35.78;15.88;;;;;;;;;;6240676;28;20041;-68
2022/12/26 18:38:27;;;;;;;31.10;14.55;;;;;;;;;;6238162;28;20473;-68
2022/12/26 18:41:29;;;;;;;99.68;41.75;;;;;;;;;;6238724;28;20056;-67
2022/12/26 18:44:31;;;;;;;82.18;38.20;;;;;;;;;;6237067;28;20045;-66
2022/12/26 18:47:32;;;;;;;77.05;32.60;;;;;;;;;;6240863;28;20041;-67
2022/12/26 18:50:34;;;;;;;43.85;21.08;;;;;;;;;;6241205;28;20400;-67
2022/12/26 18:53:34;;;;;;;;;;;;;;;;;;6240648;28;20090;-67
2022/12/26 18:56:36;;;;;;;33.45;15.73;;;;;;;;;;6240638;28;19929;-67
2022/12/26 18:59:37;;;;;;;34.97;16.05;;;;;;;;;;6240333;28;20328;-66
2022/12/26 19:02:37;;;;;;;45.42;23.23;;;;;;;;;;6240293;28;20102;-67
2022/12/26 19:05:39;;;;;;;44.15;21.05;;;;;;;;;;6240628;28;20162;-67
2022/12/26 19:08:40;;;;;;;51.80;24.40;;;;;;;;;;6239986;28;20041;-71
2022/12/26 19:11:41;;;;;;;36.40;17.30;;;;;;;;;;6239334;28;20050;-67
2022/12/26 19:14:45;;;;;;;38.58;19.70;;;;;;;;;;6242611;28;20492;-69
2022/12/26 19:17:46;;;;;;;48.85;25.38;;;;;;;;;;6240592;28;20096;-68
2022/12/26 19:20:46;;;;;;;34.45;17.83;;;;;;;;;;6236080;28;20037;-68
2022/12/26 19:23:47;;;;;;;39.60;18.13;;;;;;;;;;6240445;28;20099;-67
2022/12/26 19:26:47;;;;;;;38.08;17.58;;;;;;;;;;6237867;28;20059;-68
2022/12/26 19:29:48;;;;;;;35.10;17.77;;;;;;;;;;6227811;28;20057;-68
2022/12/26 19:32:49;;;;;;;47.60;20.35;;;;;;;;;;6237756;28;20053;-64
2022/12/26 19:35:56;;;;;;;122.93;40.17;;;;;;;;;;6229373;28;20125;-64
2022/12/26 19:38:56;;;;;;;34.25;16.17;;;;;;;;;;6226403;28;20416;-64
2022/12/26 19:41:59;;;;;;;40.13;18.17;;;;;;;;;;6226627;28;20045;-64
2022/12/26 19:45:00;;;;;;;49.75;24.20;;;;;;;;;;6223764;28;20139;-64
2022/12/26 19:48:01;;;;;;;38.40;17.98;;;;;;;;;;6224498;28;20045;-64
2022/12/26 19:51:07;;;;;;;38.65;18.60;;;;;;;;;;6229010;28;20060;-65
2022/12/26 19:54:07;;;;;;;38.50;18.13;;;;;;;;;;6225138;28;20055;-64
2022/12/26 19:57:09;;;;;;;36.85;16.08;;;;;;;;;;6225766;28;20507;-64
2022/12/26 20:00:10;;;;;;;;;;;;;;;;;;6225946;28;20605;-64
2022/12/26 20:03:11;;;;;;;39.45;17.35;;;;;;;;;;6226629;28;19921;-64
2022/12/26 20:06:14;;;;;;;51.58;24.17;;;;;;;;;;6221452;28;20053;-64
2022/12/26 20:09:15;;;;;;;52.40;27.45;;;;;;;;;;6226576;28;20045;-64
2022/12/26 20:12:24;;;;;;;43.75;18.80;;;;;;;;;;6224010;28;20045;-66
2022/12/26 20:15:27;;;;;;;39.13;18.30;;;;;;;;;;6225262;28;20107;-66
2022/12/26 20:18:29;;;;;;;43.05;23.05;;;;;;;;;;6203225;28;20103;-68
2022/12/26 20:21:29;;;;;;;39.42;18.77;;;;;;;;;;6224177;28;20054;-64
2022/12/26 20:24:31;;;;;;;39.38;17.58;;;;;;;;;;6220843;28;20086;-67
2022/12/26 20:27:31;;;;;;;38.70;17.70;;;;;;;;;;6221171;28;20235;-65